Terminal Aerodrome Forecast
Issued by NWS

Home | Current Version | Previous Version | Graphics & Text | Print | Product List | Glossary On
Versions: 1 2 3 4 5 6 7 8 9 10 11 12 13
000
FTUS43 KOAX 171121
TAFCDR
TAF
KCDR 171121Z 1712/1812 22004KT P6SM SKC
     FM171600 21010KT P6SM BKN200
     FM180100 29008KT P6SM SCT080 BKN150=

USA.gov is the U.S. government's official web portal to all federal, state and local government web resources and services.